Time;durP1;ratioP1;P1;durP2;ratioP2;P2;SDS_P1;SDS_P2;PMS_P1;PMS_P2;Temp;Humidity;BMP_temperature;BMP_pressure;BME280_temperature;BME280_humidity;BME280_pressure;Samples;Min_cycle;Max_cycle;Signal;HPM_P1;HPM_P2
2024/02/09 00:01:20;;;;;;;;;35.00;24.75;;;;;-143.90;100.00;74855.91;4858359;28;102406;-73
2024/02/09 00:03:47;;;;;;;;;29.00;22.50;;;;;-143.90;100.00;74868.31;4860362;28;102072;-73
2024/02/09 00:06:13;;;;;;;;;24.50;24.25;;;;;-143.90;100.00;74874.53;4869018;28;105440;-73
2024/02/09 00:08:40;;;;;;;;;31.50;27.75;;;;;-143.90;100.00;74870.38;4861407;28;103170;-73
2024/02/09 00:11:11;;;;;;;;;29.33;25.00;;;;;-143.90;100.00;74860.06;4865021;28;102116;-73
2024/02/09 00:13:42;;;;;;;;;24.75;20.00;;;;;-143.90;100.00;74862.13;4848555;28;102397;-73
2024/02/09 00:16:11;;;;;;;;;23.00;18.75;;;;;-143.90;100.00;74858.00;4865643;28;102188;-73
2024/02/09 00:18:39;;;;;;;;;23.00;21.75;;;;;-143.90;100.00;74849.72;4861961;28;103421;-73
2024/02/09 00:21:10;;;;;;;;;21.00;15.00;;;;;-143.90;100.00;74864.19;4860584;28;101890;-73
2024/02/09 00:23:38;;;;;;;;;40.33;35.33;;;;;-143.90;100.00;74853.84;4863114;28;102959;-73
2024/02/09 00:26:06;;;;;;;;;45.00;29.33;;;;;-143.90;100.00;74872.47;4868113;28;101798;-73
2024/02/09 00:28:33;;;;;;;;;46.33;37.33;;;;;-143.90;100.00;74872.47;4863993;28;103358;-73
2024/02/09 00:31:00;;;;;;;;;42.00;34.33;;;;;-143.90;100.00;74878.66;4858580;28;101910;-74
2024/02/09 00:33:29;;;;;;;;;52.33;38.67;;;;;-143.90;100.00;74882.78;4871274;28;102150;-73
2024/02/09 00:35:56;;;;;;;;;35.67;31.33;;;;;-143.90;100.00;74882.78;4864839;28;101873;-73
2024/02/09 00:38:23;;;;;;;;;35.33;28.33;;;;;-143.90;100.00;74874.53;4872416;28;103460;-73
2024/02/09 00:40:51;;;;;;;;;25.25;20.00;;;;;-143.90;100.00;74866.25;4863533;28;101843;-73
2024/02/09 00:43:22;;;;;;;;;21.25;17.25;;;;;-143.90;100.00;74864.19;4860542;28;101683;-73
2024/02/09 00:45:51;;;;;;;;;24.25;19.50;;;;;-143.90;100.00;74866.25;4855937;28;102134;-73
2024/02/09 00:48:18;;;;;;;;;22.00;19.50;;;;;-143.90;100.00;74868.31;4860994;28;103560;-73
2024/02/09 00:50:45;;;;;;;;;23.75;20.75;;;;;-143.90;100.00;74876.59;4866660;28;101740;-73
2024/02/09 00:53:12;;;;;;;;;25.00;22.00;;;;;-143.90;100.00;74878.66;4867540;28;102683;-73
2024/02/09 00:55:39;;;;;;;;;20.50;18.25;;;;;-143.90;100.00;74880.72;4856089;28;102524;-73
2024/02/09 00:58:06;;;;;;;;;23.25;19.75;;;;;-143.90;100.00;74874.53;4864793;28;103361;-73
2024/02/09 01:00:33;;;;;;;;;19.25;16.75;;;;;-143.90;100.00;74864.19;4820105;28;1341722;-73
2024/02/09 01:03:02;;;;;;;;;21.75;19.50;;;;;-143.90;100.00;74862.13;4856469;28;102093;-73
2024/02/09 01:05:32;;;;;;;;;25.00;22.50;;;;;-143.90;100.00;74870.38;4858477;28;102588;-73
2024/02/09 01:08:01;;;;;;;;;19.00;17.25;;;;;-143.90;100.00;74874.53;4865417;28;108121;-73
2024/02/09 01:10:28;;;;;;;;;33.67;24.33;;;;;-143.90;100.00;74868.31;4865489;28;101754;-73
2024/02/09 02:46:29;;;;;;;;;17.25;15.00;;;;;-143.90;100.00;74773.22;4872779;28;103426;-73
2024/02/09 03:05:43;;;;;;;;;10.25;9.50;;;;;-143.90;100.00;74752.56;4858282;28;101615;-73
2024/02/09 03:08:10;;;;;;;;;11.00;9.00;;;;;-143.90;100.00;74748.44;4869999;28;103518;-73
2024/02/09 03:10:57;;;;;;;;;16.25;14.00;;;;;-143.90;100.00;74748.44;4874923;28;101565;-73
2024/02/09 03:13:23;;;;;;;;;12.00;11.00;;;;;-143.90;100.00;74742.22;4866685;28;101947;-73
2024/02/09 03:15:52;;;;;;;;;9.50;9.50;;;;;-143.90;100.00;74738.09;4858405;28;102048;-72
2024/02/09 03:18:22;;;;;;;;;17.25;15.00;;;;;-143.90;100.00;74738.09;4866352;28;103432;-73
2024/02/09 03:20:49;;;;;;;;;10.00;7.50;;;;;-143.90;100.00;74727.75;4867017;28;102291;-73
2024/02/09 03:23:19;;;;;;;;;10.00;8.50;;;;;-143.90;100.00;74738.09;4863623;28;105516;-73
2024/02/09 03:25:48;;;;;;;;;19.25;18.50;;;;;-143.90;100.00;74736.03;4861744;28;101941;-73
2024/02/09 03:28:16;;;;;;;;;15.00;14.00;;;;;-143.90;100.00;74736.03;4865433;28;103136;-72
2024/02/09 03:30:43;;;;;;;;;18.00;15.00;;;;;-143.90;100.00;74729.81;4866684;28;101993;-73
2024/02/09 03:33:11;;;;;;;;;10.25;9.50;;;;;-143.90;100.00;74721.56;4860447;28;105078;-73
2024/02/09 03:35:38;;;;;;;;;24.00;21.25;;;;;-143.90;100.00;74721.56;4856987;28;102922;-73
2024/02/09 03:38:06;;;;;;;;;15.00;14.00;;;;;-143.90;100.00;74713.28;4862172;28;103458;-73
2024/02/09 03:40:32;;;;;;;;;18.00;15.50;;;;;-143.90;100.00;74713.28;4868041;28;105604;-73
2024/02/09 03:42:59;;;;;;;;;22.00;19.00;;;;;-143.90;100.00;74707.09;4869650;28;101693;-72
2024/02/09 03:45:28;;;;;;;;;24.25;21.00;;;;;-143.90;100.00;74709.16;4864247;28;102417;-73
2024/02/09 03:47:56;;;;;;;;;23.50;20.75;;;;;-143.90;100.00;74707.09;4861435;28;103973;-73
2024/02/09 03:50:23;;;;;;;;;35.00;27.33;;;;;-143.90;100.00;74698.81;4861083;28;103117;-73
2024/02/09 03:52:50;;;;;;;;;22.00;20.00;;;;;-143.90;100.00;74692.63;4864879;28;106050;-73
2024/02/09 03:55:17;;;;;;;;;20.00;19.00;;;;;-143.90;100.00;74694.69;4870953;28;101642;-73
2024/02/09 03:57:46;;;;;;;;;37.75;31.50;;;;;-143.90;100.00;74686.41;4858553;28;103391;-73
2024/02/09 04:00:15;;;;;;;;;19.50;18.75;;;;;-143.90;100.00;74682.28;4857427;28;102511;-73
2024/02/09 04:02:43;;;;;;;;;18.00;16.00;;;;;-143.90;100.00;74669.88;4872739;28;101780;-73
2024/02/09 04:05:10;;;;;;;;;11.75;10.00;;;;;-143.90;100.00;74663.66;4867856;28;101536;-73
2024/02/09 04:07:37;;;;;;;;;12.00;10.00;;;;;-143.90;100.00;74655.41;4860442;28;103599;-73
2024/02/09 04:10:05;;;;;;;;;11.00;9.25;;;;;-143.90;100.00;74649.19;4864623;28;105588;-72
2024/02/09 04:12:53;;;;;;;;;9.50;6.50;;;;;-143.90;100.00;74638.88;4867578;28;102051;-73
2024/02/09 04:15:20;;;;;;;;;19.00;17.50;;;;;-143.90;100.00;74643.00;4867638;28;102414;-73
2024/02/09 04:17:51;;;;;;;;;14.25;13.25;;;;;-143.90;100.00;74643.00;4849333;28;103454;-73
2024/02/09 04:20:18;;;;;;;;;11.00;10.75;;;;;-143.90;100.00;74626.47;4865433;28;103003;-73
2024/02/09 04:22:45;;;;;;;;;10.00;10.00;;;;;-143.90;100.00;74620.25;4860569;28;102269;-73
2024/02/09 04:25:11;;;;;;;;;8.25;6.00;;;;;-143.90;100.00;74616.13;4865483;28;102692;-73
2024/02/09 04:27:38;;;;;;;;;6.75;4.50;;;;;-143.90;100.00;74618.19;4858347;28;103498;-72
2024/02/09 04:30:06;;;;;;;;;9.75;9.25;;;;;-143.90;100.00;74614.06;4858426;28;101636;-72
2024/02/09 04:32:32;;;;;;;;;14.75;12.75;;;;;-143.90;100.00;74618.19;4861242;28;101826;-74
2024/02/09 04:34:59;;;;;;;;;19.25;17.50;;;;;-143.90;100.00;74622.34;4864526;28;101803;-73
2024/02/09 04:37:26;;;;;;;;;11.50;10.75;;;;;-143.90;100.00;74616.13;4865094;28;103522;-72
2024/02/09 04:39:52;;;;;;;;;17.75;16.00;;;;;-143.90;100.00;74614.06;4844267;28;103433;-72
2024/02/09 04:42:20;;;;;;;;;15.75;12.25;;;;;-143.90;100.00;74612.00;4872011;28;102322;-72
2024/02/09 04:44:47;;;;;;;;;12.25;11.50;;;;;-143.90;100.00;74607.84;4862650;28;102031;-72
2024/02/09 04:47:15;;;;;;;;;22.25;19.50;;;;;-143.90;100.00;74612.00;4862157;28;103372;-73
2024/02/09 04:49:44;;;;;;;;;18.25;17.50;;;;;-143.90;100.00;74605.78;4849267;28;102140;-73
2024/02/09 04:52:13;;;;;;;;;15.00;10.75;;;;;-143.90;100.00;74597.53;4860526;28;103700;-72
2024/02/09 04:54:40;;;;;;;;;11.25;9.00;;;;;-143.90;100.00;74593.38;4858983;28;102220;-73
2024/02/09 04:57:11;;;;;;;;;13.50;11.25;;;;;-143.90;100.00;74585.13;4864878;28;103525;-73
2024/02/09 04:59:38;;;;;;;;;14.75;11.00;;;;;-143.90;100.00;74574.78;4859654;28;101839;-73
2024/02/09 05:02:05;;;;;;;;;7.25;6.00;;;;;-143.90;100.00;74572.72;4858953;28;102227;-73
2024/02/09 05:04:32;;;;;;;;;8.75;8.25;;;;;-143.90;100.00;74564.44;4858553;28;102109;-73
2024/02/09 05:06:59;;;;;;;;;9.25;8.00;;;;;-143.90;100.00;74562.38;4871453;28;108010;-73
2024/02/09 05:09:29;;;;;;;;;6.00;6.00;;;;;-143.90;100.00;74560.31;4866308;28;102254;-73
2024/02/09 05:11:58;;;;;;;;;10.50;6.75;;;;;-143.90;100.00;74558.25;4856777;28;102034;-73
2024/02/09 05:14:25;;;;;;;;;10.00;10.00;;;;;-143.90;100.00;74562.38;4870116;28;102331;-73
2024/02/09 05:16:52;;;;;;;;;10.75;9.50;;;;;-143.90;100.00;74556.19;4863873;28;103487;-73
2024/02/09 05:19:19;;;;;;;;;6.25;6.00;;;;;-143.90;100.00;74552.03;4860406;28;101861;-73
2024/02/09 05:21:45;;;;;;;;;7.75;6.75;;;;;-143.90;100.00;74547.91;4858461;28;102071;-73
2024/02/09 05:24:13;;;;;;;;;10.50;9.50;;;;;-143.90;100.00;74547.91;4867210;28;102182;-73
2024/02/09 05:26:39;;;;;;;;;14.25;8.50;;;;;-143.90;100.00;74547.91;4862273;28;103669;-73
2024/02/09 05:29:06;;;;;;;;;15.75;11.00;;;;;-143.90;100.00;74547.91;4863065;28;103160;-73
2024/02/09 05:31:33;;;;;;;;;9.75;9.75;;;;;-143.90;100.00;74543.78;4858782;28;102916;-74
2024/02/09 05:34:01;;;;;;;;;7.50;7.00;;;;;-143.90;100.00;74547.91;4863756;28;102148;-73
2024/02/09 05:36:29;;;;;;;;;6.50;6.00;;;;;-143.90;100.00;74547.91;4869015;28;108348;-73
2024/02/09 05:38:58;;;;;;;;;11.25;11.00;;;;;-143.90;100.00;74549.97;4863208;28;101747;-73
2024/02/09 05:41:26;;;;;;;;;10.00;8.00;;;;;-143.90;100.00;74545.84;4864366;28;102167;-73
2024/02/09 05:43:57;;;;;;;;;9.50;8.00;;;;;-143.90;100.00;74547.91;4852234;28;102058;-72
2024/02/09 05:46:28;;;;;;;;;13.00;11.75;;;;;-143.90;100.00;74549.97;4877169;28;103382;-73
2024/02/09 05:48:55;;;;;;;;;14.00;12.50;;;;;-143.90;100.00;74543.78;4865510;28;101847;-73
2024/02/09 05:51:23;;;;;;;;;13.75;9.75;;;;;-143.90;100.00;74545.84;4869322;28;102058;-73
2024/02/09 05:53:50;;;;;;;;;11.00;10.25;;;;;-143.90;100.00;74549.97;4862391;28;101992;-73
2024/02/09 05:56:21;;;;;;;;;17.25;14.00;;;;;-143.90;100.00;74549.97;4864005;28;104316;-73
2024/02/09 05:58:51;;;;;;;;;18.75;12.25;;;;;-143.90;100.00;74549.97;4878413;28;101699;-73
2024/02/09 06:01:38;;;;;;;;;15.25;12.50;;;;;-143.90;100.00;74543.78;4865542;28;101687;-72
2024/02/09 06:04:05;;;;;;;;;12.50;9.50;;;;;-143.90;100.00;74541.72;4867624;28;101775;-72
2024/02/09 06:06:31;;;;;;;;;12.75;10.25;;;;;-143.90;100.00;74537.56;4868732;28;103336;-73
2024/02/09 06:09:01;;;;;;;;;13.50;11.00;;;;;-143.90;100.00;74543.78;4873518;28;101705;-72
2024/02/09 06:11:28;;;;;;;;;11.00;10.25;;;;;-143.90;100.00;74547.91;4863929;28;103275;-73
2024/02/09 06:13:55;;;;;;;;;11.75;10.75;;;;;-143.90;100.00;74545.84;4850576;28;102569;-73
2024/02/09 06:16:22;;;;;;;;;10.75;8.25;;;;;-143.90;100.00;74539.66;4863804;28;103531;-72
2024/02/09 06:18:49;;;;;;;;;11.75;8.50;;;;;-143.90;100.00;74535.50;4860452;28;101889;-73
2024/02/09 06:21:16;;;;;;;;;7.00;7.00;;;;;-143.90;100.00;74535.50;4869289;28;101811;-73
2024/02/09 06:23:49;;;;;;;;;13.00;7.75;;;;;-143.90;100.00;74529.31;4871555;28;102089;-72
2024/02/09 06:26:16;;;;;;;;;10.50;7.00;;;;;-143.90;100.00;74531.38;4870378;28;103375;-72
2024/02/09 06:28:46;;;;;;;;;12.50;10.25;;;;;-143.90;100.00;74539.66;4875805;28;101854;-72
2024/02/09 06:31:17;;;;;;;;;15.50;9.25;;;;;-143.90;100.00;74527.25;4872414;28;101879;-73
2024/02/09 06:33:49;;;;;;;;;12.50;10.00;;;;;-143.90;100.00;74527.25;4864155;28;101969;-73
2024/02/09 06:36:21;;;;;;;;;11.00;10.00;;;;;-143.90;100.00;74529.31;4871763;28;103077;-73
2024/02/09 06:38:50;;;;;;;;;11.00;8.50;;;;;-143.90;100.00;74531.38;4871577;28;101614;-73
2024/02/09 06:41:16;;;;;;;;;8.75;7.75;;;;;-143.90;100.00;74525.19;4869436;28;101653;-73
2024/02/09 06:43:43;;;;;;;;;13.00;11.75;;;;;-143.90;100.00;74533.44;4869165;28;102706;-72
2024/02/09 06:46:10;;;;;;;;;10.75;10.50;;;;;-143.90;100.00;74531.38;4866675;28;103401;-73
2024/02/09 06:48:37;;;;;;;;;11.75;10.25;;;;;-143.90;100.00;74523.09;4852267;28;102638;-73
2024/02/09 06:51:05;;;;;;;;;10.00;7.25;;;;;-143.90;100.00;74523.09;4849584;28;102697;-73
2024/02/09 06:53:32;;;;;;;;;13.00;11.25;;;;;-143.90;100.00;74518.97;4859269;28;102392;-73
2024/02/09 06:55:59;;;;;;;;;8.25;6.25;;;;;-143.90;100.00;74514.84;4866749;28;108391;-73
2024/02/09 06:58:28;;;;;;;;;11.50;9.75;;;;;-143.90;100.00;74508.63;4863767;28;102047;-73
2024/02/09 07:00:56;;;;;;;;;10.00;8.25;;;;;-143.90;100.00;74502.44;4865109;28;101624;-73
2024/02/09 07:03:24;;;;;;;;;14.50;10.00;;;;;-143.90;100.00;74508.63;4874798;28;105557;-73
2024/02/09 07:05:54;;;;;;;;;13.00;10.75;;;;;-143.90;100.00;74496.25;4857350;28;103340;-73
2024/02/09 07:08:30;;;;;;;;;16.00;10.75;;;;;-143.90;100.00;74490.03;4866077;28;101627;-73
2024/02/09 07:10:59;;;;;;;;;12.25;11.75;;;;;-143.90;100.00;74481.78;4863614;28;101724;-73
2024/02/09 07:13:26;;;;;;;;;14.00;11.00;;;;;-143.90;100.00;74481.78;4869641;28;101699;-73
2024/02/09 07:15:53;;;;;;;;;12.25;12.00;;;;;-143.90;100.00;74469.38;4859991;28;103376;-73
2024/02/09 07:18:20;;;;;;;;;10.50;10.50;;;;;-143.90;100.00;74461.09;4864325;28;102391;-73
2024/02/09 07:20:47;;;;;;;;;22.25;12.75;;;;;-143.90;100.00;74461.09;4864148;28;102270;-73
2024/02/09 07:23:13;;;;;;;;;16.00;14.00;;;;;-143.90;100.00;74454.91;4870100;28;107309;-73
2024/02/09 07:25:40;;;;;;;;;17.00;15.25;;;;;-143.90;100.00;74446.63;4854335;28;103414;-73
2024/02/09 07:28:07;;;;;;;;;19.75;17.25;;;;;-143.90;100.00;74442.50;4860534;28;101954;-73
2024/02/09 07:30:33;;;;;;;;;19.00;15.75;;;;;-143.90;100.00;74436.28;4872186;28;101699;-72
2024/02/09 07:33:00;;;;;;;;;16.50;15.75;;;;;-143.90;100.00;74419.75;4867677;28;101565;-73
2024/02/09 07:35:27;;;;;;;;;16.00;13.50;;;;;-143.90;100.00;74415.63;4861713;28;103674;-72
2024/02/09 07:37:53;;;;;;;;;19.25;13.25;;;;;-143.90;100.00;74413.56;4858297;28;106252;-73
2024/02/09 07:40:20;;;;;;;;;19.50;17.00;;;;;-143.90;100.00;74411.50;4866674;28;102265;-73
2024/02/09 07:42:47;;;;;;;;;17.00;15.00;;;;;-143.90;100.00;74399.09;4871037;28;102104;-73
2024/02/09 07:45:20;;;;;;;;;16.75;16.25;;;;;-143.90;100.00;74394.94;4867650;28;103319;-73
2024/02/09 07:47:49;;;;;;;;;20.75;16.50;;;;;-143.90;100.00;74394.94;4857385;28;101956;-73
2024/02/09 07:50:16;;;;;;;;;15.25;12.50;;;;;-143.90;100.00;74388.75;4864524;28;102191;-73
2024/02/09 07:52:42;;;;;;;;;21.75;16.50;;;;;-143.90;100.00;74384.63;4869290;28;101969;-72
2024/02/09 07:55:13;;;;;;;;;12.50;11.50;;;;;-143.90;100.00;74378.41;4863063;28;103346;-73
2024/02/09 07:57:41;;;;;;;;;18.25;13.00;;;;;-143.90;100.00;74368.09;4849347;28;101866;-73
2024/02/09 08:00:09;;;;;;;;;14.75;11.50;;;;;-143.90;100.00;74363.94;4877120;28;102957;-73
2024/02/09 08:02:36;;;;;;;;;12.25;12.25;;;;;-143.90;100.00;74361.88;4869839;28;104002;-73
2024/02/09 08:05:07;;;;;;;;;16.75;13.25;;;;;-143.90;100.00;74349.47;4869133;28;103462;-73
2024/02/09 08:07:36;;;;;;;;;16.75;15.00;;;;;-143.90;100.00;74345.34;4855125;28;102955;-73
2024/02/09 08:10:04;;;;;;;;;12.75;12.00;;;;;-143.90;100.00;74332.94;4869503;28;101932;-73
2024/02/09 08:12:32;;;;;;;;;13.75;12.50;;;;;-143.90;100.00;74320.53;4863416;28;102273;-73
2024/02/09 08:14:59;;;;;;;;;18.50;14.50;;;;;-143.90;100.00;74306.06;4861536;28;103571;-73
2024/02/09 08:17:26;;;;;;;;;15.75;13.75;;;;;-143.90;100.00;74287.47;4862979;28;107173;-73
2024/02/09 08:19:53;;;;;;;;;14.50;13.00;;;;;-143.90;100.00;74285.41;4857720;28;102031;-73
2024/02/09 08:22:22;;;;;;;;;17.50;14.50;;;;;-143.90;100.00;74270.94;4869007;28;102007;-74
2024/02/09 08:24:50;;;;;;;;;14.00;13.00;;;;;-143.90;100.00;74262.66;4865014;28;103590;-73
2024/02/09 08:27:16;;;;;;;;;15.75;12.00;;;;;-143.90;100.00;74252.34;4861517;28;103220;-73
2024/02/09 08:29:43;;;;;;;;;18.00;14.00;;;;;-143.90;100.00;74237.88;4857810;28;102017;-73
2024/02/09 08:32:10;;;;;;;;;15.00;14.00;;;;;-143.90;100.00;74229.59;4867394;28;101802;-73
2024/02/09 08:34:37;;;;;;;;;19.75;16.50;;;;;-143.90;100.00;74215.13;4861085;28;103523;-73
2024/02/09 08:37:04;;;;;;;;;19.00;15.50;;;;;-143.90;100.00;74204.78;4872593;28;102771;-73
2024/02/09 08:39:31;;;;;;;;;17.50;14.00;;;;;-143.90;100.00;74198.59;4867959;28;103678;-73
2024/02/09 08:41:57;;;;;;;;;15.50;13.50;;;;;-143.90;100.00;74190.31;4866271;28;104121;-73
2024/02/09 08:44:24;;;;;;;;;16.75;12.25;;;;;-143.90;100.00;74182.06;4870896;28;103534;-73
2024/02/09 08:46:51;;;;;;;;;14.00;13.00;;;;;-143.90;100.00;74180.00;4868483;28;101960;-73
2024/02/09 08:49:18;;;;;;;;;16.50;11.25;;;;;-143.90;100.00;74175.84;4872769;28;102036;-73
2024/02/09 08:51:45;;;;;;;;;15.75;11.50;;;;;-143.90;100.00;74165.53;4858986;28;106545;-73
2024/02/09 08:54:11;;;;;;;;;17.00;14.00;;;;;-143.90;100.00;74163.47;4869417;28;103309;-73
2024/02/09 08:56:38;;;;;;;;;14.75;12.50;;;;;-143.90;100.00;74153.13;4874298;28;101877;-73
2024/02/09 08:59:06;;;;;;;;;11.75;10.50;;;;;-143.90;100.00;74159.31;4869650;28;101678;-73
2024/02/09 09:01:38;;;;;;;;;14.25;10.50;;;;;-143.90;100.00;74146.91;4857685;28;102198;-73
2024/02/09 09:04:04;;;;;;;;;15.00;13.00;;;;;-143.90;100.00;74142.78;4880429;28;103321;-73
2024/02/09 09:06:32;;;;;;;;;13.25;11.00;;;;;-143.90;100.00;74134.53;4864415;28;102223;-73
2024/02/09 09:09:00;;;;;;;;;11.75;10.50;;;;;-143.90;100.00;74138.66;4869555;28;101700;-73
2024/02/09 09:11:27;;;;;;;;;13.50;11.75;;;;;-143.90;100.00;74138.66;4867218;28;102002;-73
2024/02/09 09:13:54;;;;;;;;;13.50;10.00;;;;;-143.90;100.00;74130.38;4858296;28;103835;-73
2024/02/09 09:16:21;;;;;;;;;13.75;13.75;;;;;-143.90;100.00;74122.13;4866058;28;101980;-73
2024/02/09 09:18:50;;;;;;;;;12.00;11.00;;;;;-143.90;100.00;74118.00;4869363;28;102094;-73
2024/02/09 09:21:17;;;;;;;;;16.00;13.00;;;;;-143.90;100.00;74109.72;4871671;28;101638;-73
2024/02/09 09:23:44;;;;;;;;;13.75;12.75;;;;;-143.90;100.00;74113.84;4859167;28;103529;-73
2024/02/09 09:26:12;;;;;;;;;12.00;10.50;;;;;-143.90;100.00;74101.44;4873687;28;102074;-73
2024/02/09 09:28:53;;;;;;;;;17.25;12.50;;;;;-143.90;100.00;74099.38;4865106;28;105154;-74
2024/02/09 09:31:20;;;;;;;;;13.00;13.00;;;;;-143.90;100.00;74103.53;4873272;28;101913;-73
2024/02/09 09:33:47;;;;;;;;;13.75;13.00;;;;;-143.90;100.00;74105.59;4859020;28;103557;-73
2024/02/09 09:36:14;;;;;;;;;14.50;12.50;;;;;-143.90;100.00;74099.38;4870985;28;101808;-73
2024/02/09 09:38:42;;;;;;;;;15.75;13.00;;;;;-143.90;100.00;74097.31;4865997;28;103995;-73
2024/02/09 09:41:10;;;;;;;;;15.50;12.75;;;;;-143.90;100.00;74082.84;4867983;28;101949;-74
2024/02/09 09:43:37;;;;;;;;;12.50;11.75;;;;;-143.90;100.00;74076.66;4866791;28;104003;-73
2024/02/09 09:46:08;;;;;;;;;7.50;5.50;;;;;-143.90;100.00;74066.31;4874578;28;101936;-73
2024/02/09 09:48:37;;;;;;;;;13.50;10.00;;;;;-143.90;100.00;74058.06;4870693;28;101946;-73
2024/02/09 09:51:07;;;;;;;;;14.75;12.50;;;;;-143.90;100.00;74047.72;4867221;28;102260;-73
2024/02/09 09:53:42;;;;;;;;;19.75;17.00;;;;;-143.90;100.00;74043.59;4869588;28;107960;-73
2024/02/09 09:56:10;;;;;;;;;18.50;13.25;;;;;-143.90;100.00;74041.50;4871497;28;101924;-73
2024/02/09 09:58:37;;;;;;;;;22.00;15.50;;;;;-143.90;100.00;74029.13;4869148;28;101765;-73
2024/02/09 10:01:07;;;;;;;;;14.75;10.50;;;;;-143.90;100.00;74020.84;4872374;28;102520;-74
2024/02/09 10:03:38;;;;;;;;;13.25;13.25;;;;;-143.90;100.00;74016.72;4854112;28;108289;-73
2024/02/09 10:06:05;;;;;;;;;14.50;12.50;;;;;-143.90;100.00;74000.19;4867153;28;101897;-73
2024/02/09 10:08:35;;;;;;;;;13.50;12.00;;;;;-143.90;100.00;73998.13;4875981;28;101959;-73
2024/02/09 10:11:06;;;;;;;;;14.25;13.00;;;;;-143.90;100.00;73985.72;4869587;28;102257;-73
2024/02/09 10:13:33;;;;;;;;;13.50;12.00;;;;;-143.90;100.00;73981.56;4864140;28;108610;-73
2024/02/09 10:16:03;;;;;;;;;14.25;13.00;;;;;-143.90;100.00;73973.31;4863834;28;101997;-73
2024/02/09 10:18:34;;;;;;;;;14.75;12.00;;;;;-143.90;100.00;73969.19;4864142;28;102114;-73
2024/02/09 10:21:02;;;;;;;;;13.25;13.00;;;;;-143.90;100.00;73962.97;4864046;28;102579;-73
2024/02/09 10:23:29;;;;;;;;;16.00;13.50;;;;;-143.90;100.00;73944.38;4866000;28;103326;-71
2024/02/09 10:26:03;;;;;;;;;21.75;14.50;;;;;-143.90;100.00;73938.19;4859439;28;101564;-71
2024/02/09 10:28:30;;;;;;;;;21.25;16.25;;;;;-143.90;100.00;73929.91;4865397;28;102965;-73
2024/02/09 10:31:00;;;;;;;;;20.00;18.00;;;;;-143.90;100.00;73917.50;4866206;28;107357;-72
2024/02/09 10:33:27;;;;;;;;;16.00;13.00;;;;;-143.90;100.00;73911.31;4867066;28;104207;-72
2024/02/09 10:35:59;;;;;;;;;19.50;16.50;;;;;-143.90;100.00;73900.97;4858815;28;101847;-72
2024/02/09 10:38:27;;;;;;;;;21.00;18.25;;;;;-143.90;100.00;73898.91;4875730;28;101755;-72
2024/02/09 10:40:55;;;;;;;;;16.25;14.75;;;;;-143.90;100.00;73888.56;4869713;28;101860;-71
2024/02/09 10:43:23;;;;;;;;;14.75;12.00;;;;;-143.90;100.00;73882.38;4866560;28;103633;-71
2024/02/09 10:45:51;;;;;;;;;15.50;15.50;;;;;-143.90;100.00;73888.56;4855709;28;102384;-71
2024/02/09 10:48:34;;;;;;;;;15.50;12.00;;;;;-143.90;100.00;73869.97;4830335;28;102741;-72
2024/02/09 10:51:06;;;;;;;;;11.25;9.00;;;;;-143.90;100.00;73867.91;4822127;28;102816;-72
2024/02/09 10:53:35;;;;;;;;;11.00;9.75;;;;;-143.90;100.00;73861.69;4820306;28;108121;-72
2024/02/09 10:56:05;;;;;;;;;13.25;9.00;;;;;-143.90;100.00;73853.44;4836805;28;102579;-72
2024/02/09 10:58:33;;;;;;;;;11.25;10.00;;;;;-143.90;100.00;73855.50;4823126;28;105532;-72
2024/02/09 11:01:04;;;;;;;;;13.00;12.25;;;;;-143.90;100.00;73857.56;4815009;28;102951;-73
2024/02/09 11:03:32;;;;;;;;;14.00;13.00;;;;;-143.90;100.00;73853.44;4810910;28;103358;-73
2024/02/09 11:06:02;;;;;;;;;14.75;13.25;;;;;-143.90;100.00;73849.31;4811118;28;102986;-73
2024/02/09 11:08:33;;;;;;;;;12.75;11.75;;;;;-143.90;100.00;73832.78;4826354;28;102600;-73
2024/02/09 11:11:04;;;;;;;;;15.50;10.75;;;;;-143.90;100.00;73826.56;4840261;28;102114;-73
2024/02/09 11:13:33;;;;;;;;;12.25;10.00;;;;;-143.90;100.00;73820.38;4814372;28;104036;-72
2024/02/09 11:16:01;;;;;;;;;16.25;13.25;;;;;-143.90;100.00;73810.03;4796675;28;102875;-73
2024/02/09 11:18:35;;;;;;;;;9.50;9.50;;;;;-143.90;100.00;73803.84;4831795;28;102191;-73
2024/02/09 11:21:02;;;;;;;;;9.50;8.25;;;;;-143.90;100.00;73805.91;4861038;28;101834;-73
2024/02/09 11:23:36;;;;;;;;;21.50;20.00;;;;;-143.90;100.00;73799.69;4869081;28;103918;-72
2024/02/09 11:26:13;;;;;;;;;9.25;9.25;;;;;-143.90;100.00;73787.31;4868435;28;102360;-72
2024/02/09 11:28:40;;;;;;;;;9.00;8.00;;;;;-143.90;100.00;73770.78;4866802;28;101767;-72
2024/02/09 11:31:10;;;;;;;;;9.75;8.50;;;;;-143.90;100.00;73750.09;4872608;28;101889;-71
2024/02/09 11:33:41;;;;;;;;;5.75;5.50;;;;;-143.90;100.00;73739.78;4860513;28;107992;-72
2024/02/09 11:36:08;;;;;;;;;10.00;9.25;;;;;-143.90;100.00;73725.31;4871665;28;107237;-72
2024/02/09 11:38:35;;;;;;;;;9.50;8.25;;;;;-143.90;100.00;73712.91;4874905;28;101919;-73
2024/02/09 11:41:01;;;;;;;;;10.75;10.00;;;;;-143.90;100.00;73694.31;4875826;28;102516;-72
2024/02/09 11:43:29;;;;;;;;;11.00;10.00;;;;;-143.90;100.00;73673.63;4873191;28;103532;-72
2024/02/09 11:45:57;;;;;;;;;16.75;13.75;;;;;-143.90;100.00;73657.09;4860119;28;101715;-72
2024/02/09 11:48:24;;;;;;;;;10.25;9.00;;;;;-143.90;100.00;73650.91;4872528;28;101825;-72
2024/02/09 11:50:53;;;;;;;;;13.75;10.50;;;;;-143.90;100.00;73632.31;4870927;28;102097;-73
2024/02/09 11:53:20;;;;;;;;;7.75;5.00;;;;;-143.90;100.00;73632.31;4866720;28;103249;-72
2024/02/09 11:55:47;;;;;;;;;13.00;11.00;;;;;-143.90;100.00;73630.25;4867716;28;104321;-72
2024/02/09 11:58:14;;;;;;;;;13.75;10.75;;;;;-143.90;100.00;73634.38;4872525;28;104833;-72
2024/02/09 12:00:41;;;;;;;;;13.00;12.50;;;;;-143.90;100.00;73634.38;4876706;28;101925;-72
2024/02/09 12:03:09;;;;;;;;;9.25;8.25;;;;;-143.90;100.00;73619.91;4872948;28;103458;-72
2024/02/09 12:05:43;;;;;;;;;7.25;4.25;;;;;-143.90;100.00;73617.84;4866792;28;102275;-72
2024/02/09 12:08:09;;;;;;;;;14.00;10.25;;;;;-143.90;100.00;73630.25;4869893;28;101957;-71
2024/02/09 12:10:36;;;;;;;;;12.00;10.00;;;;;-143.90;100.00;73621.97;4870592;28;101869;-72
2024/02/09 12:13:05;;;;;;;;;15.00;11.50;;;;;-143.90;100.00;73619.91;4870123;28;108065;-72
2024/02/09 12:15:32;;;;;;;;;12.75;9.00;;;;;-143.90;100.00;73621.97;4872405;28;102043;-72
2024/02/09 12:18:01;;;;;;;;;13.00;11.25;;;;;-143.90;100.00;73626.09;4870075;28;101932;-73
2024/02/09 12:20:29;;;;;;;;;9.75;9.00;;;;;-143.90;100.00;73628.16;4869661;28;102144;-72
2024/02/09 12:22:56;;;;;;;;;10.50;9.00;;;;;-143.90;100.00;73638.50;4857329;28;103750;-72
2024/02/09 12:25:24;;;;;;;;;11.25;9.75;;;;;-143.90;100.00;73638.50;4874377;28;101907;-72
2024/02/09 12:27:58;;;;;;;;;7.00;7.00;;;;;-143.90;100.00;73650.91;4861313;28;102231;-72
2024/02/09 12:30:27;;;;;;;;;10.25;9.25;;;;;-143.90;100.00;73650.91;4876589;28;101565;-74
2024/02/09 12:32:56;;;;;;;;;10.75;9.25;;;;;-143.90;100.00;73650.91;4870486;28;103951;-72
2024/02/09 12:35:29;;;;;;;;;12.50;8.00;;;;;-143.90;100.00;73657.09;4871127;28;102199;-73
2024/02/09 12:37:59;;;;;;;;;13.50;9.00;;;;;-143.90;100.00;73661.25;4859960;28;102036;-72
2024/02/09 12:40:26;;;;;;;;;8.25;7.75;;;;;-143.90;100.00;73657.09;4874800;28;102716;-72
2024/02/09 12:42:53;;;;;;;;;7.00;7.00;;;;;-143.90;100.00;73661.25;4872834;28;106657;-72
2024/02/09 12:45:28;;;;;;;;;4.00;2.50;;;;;-143.90;100.00;73661.25;4870655;28;101880;-72